Time;durP1;ratioP1;P1;durP2;ratioP2;P2;SDS_P1;SDS_P2;PMS_P1;PMS_P2;Temp;Humidity;BMP_temperature;BMP_pressure;BME280_temperature;BME280_humidity;BME280_pressure;Samples;Min_cycle;Max_cycle;Signal;HPM_P1;HPM_P2
2022/10/17 00:01:38;;;;;;;;;;;11.60;99.90;;;;;;5057024;28;20390;-76
2022/10/17 00:04:04;;;;;;;;;;;11.70;99.90;;;;;;5074608;28;19948;-76
2022/10/17 00:06:29;;;;;;;;;;;11.60;99.90;;;;;;5059156;28;20049;-76
2022/10/17 00:08:55;;;;;;;;;;;11.70;99.90;;;;;;5054418;28;19931;-76
2022/10/17 00:11:22;;;;;;;;;;;11.70;99.90;;;;;;5072584;28;19975;-76
2022/10/17 00:13:48;;;;;;;;;;;11.80;99.90;;;;;;5093203;28;20356;-76
2022/10/17 00:16:15;;;;;;;;;;;11.80;99.90;;;;;;5088525;28;20379;-76
2022/10/17 00:18:40;;;;;;;;;;;11.80;99.90;;;;;;5071208;28;19928;-76
2022/10/17 00:21:13;;;;;;;;;;;11.80;99.90;;;;;;5054565;28;19932;-76
2022/10/17 00:23:38;;;;;;;;;;;11.80;99.90;;;;;;5066869;28;19928;-76
2022/10/17 00:26:04;;;;;;;;;;;11.80;99.90;;;;;;5055056;28;20431;-76
2022/10/17 00:28:30;;;;;;;;;;;11.80;99.90;;;;;;5091338;28;19928;-76
2022/10/17 00:30:57;;;;;;;;;;;11.80;99.90;;;;;;5088933;28;19924;-76
2022/10/17 00:33:22;;;;;;;;;;;11.90;99.90;;;;;;5074366;28;19974;-76
2022/10/17 00:35:48;;;;;;;;;;;11.80;99.90;;;;;;5072381;28;19928;-76
2022/10/17 00:38:13;;;;;;;;;;;11.80;99.90;;;;;;5083874;28;19925;-76
2022/10/17 00:40:39;;;;;;;;;;;11.80;99.90;;;;;;5083751;28;19983;-76
2022/10/17 00:43:10;;;;;;;;;;;11.90;99.90;;;;;;5091221;28;20041;-76
2022/10/17 00:45:35;;;;;;;;;;;11.90;99.90;;;;;;5072415;28;19924;-77
2022/10/17 00:48:04;;;;;;;;;;;11.90;99.90;;;;;;5089171;28;20318;-76
2022/10/17 00:50:29;;;;;;;;;;;12.00;99.90;;;;;;5064402;28;19925;-76
2022/10/17 00:52:57;;;;;;;;;;;12.00;99.90;;;;;;5096224;28;19939;-76
2022/10/17 00:55:28;;;;;;;;;;;12.00;99.90;;;;;;5080139;28;20027;-76
2022/10/17 00:57:54;;;;;;;;;;;12.10;99.90;;;;;;5057879;28;19977;-76
2022/10/17 01:00:20;;;;;;;;;;;12.10;99.90;;;;;;5057514;28;20007;-76
2022/10/17 01:02:46;;;;;;;;;;;12.20;99.90;;;;;;5090467;28;19924;-76
2022/10/17 01:05:12;;;;;;;;;;;12.20;99.90;;;;;;5057532;28;19968;-76
2022/10/17 01:07:39;;;;;;;;;;;12.30;99.90;;;;;;5091575;28;19925;-77
2022/10/17 01:10:05;;;;;;;;;;;12.40;99.90;;;;;;5072419;28;20384;-76
2022/10/17 01:12:40;;;;;;;;;;;12.40;99.90;;;;;;5056237;28;19951;-76
2022/10/17 01:15:08;;;;;;;;;;;12.50;99.90;;;;;;5054461;28;19929;-76
2022/10/17 01:17:39;;;;;;;;;;;12.50;99.90;;;;;;5066477;28;19924;-76
2022/10/17 01:20:05;;;;;;;;;;;12.50;99.90;;;;;;5050611;28;19931;-76
2022/10/17 01:22:38;;;;;;;;;;;12.60;99.90;;;;;;5056705;28;20364;-76
2022/10/17 01:25:07;;;;;;;;;;;12.60;99.90;;;;;;5057379;28;19932;-76
2022/10/17 01:27:51;;;;;;;;;;;12.60;99.90;;;;;;5055010;28;19931;-76
2022/10/17 01:30:20;;;;;;;;;;;12.70;99.90;;;;;;5068188;28;19986;-76
2022/10/17 01:32:50;;;;;;;;;;;12.70;99.90;;;;;;5090383;28;19947;-76
2022/10/17 01:35:16;;;;;;;;;;;12.70;99.90;;;;;;5071792;28;20019;-76
2022/10/17 01:37:45;;;;;;;;;;;12.80;99.90;;;;;;5054811;28;20412;-76
2022/10/17 01:40:15;;;;;;;;;;;12.80;99.90;;;;;;5079708;28;20015;-76
2022/10/17 01:42:55;;;;;;;;;;;12.80;99.90;;;;;;5059334;28;19933;-76
2022/10/17 01:45:24;;;;;;;;;;;12.80;99.90;;;;;;5053967;28;19929;-76
2022/10/17 01:47:51;;;;;;;;;;;12.80;99.90;;;;;;5071425;28;20110;-76
2022/10/17 01:50:23;;;;;;;;;;;12.90;99.90;;;;;;5089241;28;19924;-76
2022/10/17 01:52:58;;;;;;;;;;;12.90;99.90;;;;;;5063228;28;19929;-76
2022/10/17 01:55:27;;;;;;;;;;;12.90;99.90;;;;;;5085977;28;19990;-76
2022/10/17 01:57:55;;;;;;;;;;;12.90;99.90;;;;;;5071742;28;19925;-75
2022/10/17 02:00:22;;;;;;;;;;;12.80;99.90;;;;;;5066154;28;19929;-76
2022/10/17 02:02:50;;;;;;;;;;;12.80;99.90;;;;;;5071749;28;19931;-76
2022/10/17 02:05:17;;;;;;;;;;;12.80;99.90;;;;;;5104968;28;19924;-76
2022/10/17 02:07:43;;;;;;;;;;;12.80;99.90;;;;;;5053800;28;20273;-76
2022/10/17 02:10:11;;;;;;;;;;;12.80;99.90;;;;;;5089093;28;19931;-76
2022/10/17 02:12:44;;;;;;;;;;;12.80;99.90;;;;;;5089787;28;19972;-76
2022/10/17 02:15:19;;;;;;;;;;;12.80;99.90;;;;;;5106795;28;20469;-76
2022/10/17 02:18:00;;;;;;;;;;;12.80;99.90;;;;;;5106839;28;19924;-76
2022/10/17 02:20:36;;;;;;;;;;;12.80;99.90;;;;;;5099392;28;20269;-76
2022/10/17 02:23:10;;;;;;;;;;;12.80;99.90;;;;;;5064447;28;20288;-76
2022/10/17 02:25:45;;;;;;;;;;;12.80;99.90;;;;;;5039261;28;19925;-76
2022/10/17 02:28:23;;;;;;;;;;;12.80;99.90;;;;;;5046840;28;19971;-77
2022/10/17 02:30:48;;;;;;;;;;;12.70;99.90;;;;;;5068951;28;20377;-77
2022/10/17 02:33:18;;;;;;;;;;;12.70;99.90;;;;;;5046171;28;19972;-76
2022/10/17 02:35:46;;;;;;;;;;;12.70;99.90;;;;;;5066103;28;19987;-76
2022/10/17 02:38:12;;;;;;;;;;;12.70;99.90;;;;;;5035702;28;20012;-76
2022/10/17 02:40:39;;;;;;;;;;;12.60;99.90;;;;;;5048643;28;19936;-76
2022/10/17 02:43:04;;;;;;;;;;;12.60;99.90;;;;;;5058167;28;19925;-77
2022/10/17 02:45:34;;;;;;;;;;;12.60;99.90;;;;;;5034849;28;19974;-76
2022/10/17 02:48:09;;;;;;;;;;;12.60;99.90;;;;;;5032701;28;20385;-76
2022/10/17 02:50:41;;;;;;;;;;;12.60;99.90;;;;;;5032938;28;20015;-76
2022/10/17 02:53:12;;;;;;;;;;;12.60;99.90;;;;;;5061369;28;19925;-76
2022/10/17 02:55:41;;;;;;;;;;;12.60;99.90;;;;;;5071818;28;19948;-76
2022/10/17 02:58:24;;;;;;;;;;;12.60;99.90;;;;;;5050270;28;20016;-76
2022/10/17 03:00:51;;;;;;;;;;;12.60;99.90;;;;;;5032679;28;20300;-77
2022/10/17 03:03:21;;;;;;;;;;;12.50;99.90;;;;;;5034947;28;19932;-76
2022/10/17 03:05:46;;;;;;;;;;;12.50;99.90;;;;;;5077527;28;20346;-76
2022/10/17 03:08:12;;;;;;;;;;;12.50;99.90;;;;;;5040454;28;20012;-76
2022/10/17 03:10:37;;;;;;;;;;;12.50;99.90;;;;;;5065807;28;19944;-76
2022/10/17 03:13:03;;;;;;;;;;;12.50;99.90;;;;;;5034101;28;19929;-76
2022/10/17 03:15:29;;;;;;;;;;;12.50;99.90;;;;;;5049139;28;20019;-77
2022/10/17 03:17:54;;;;;;;;;;;12.50;99.90;;;;;;5048179;28;19933;-76
2022/10/17 03:20:20;;;;;;;;;;;12.50;99.90;;;;;;5047507;28;19933;-76
2022/10/17 03:22:45;;;;;;;;;;;12.50;99.90;;;;;;5014285;28;20026;-76
2022/10/17 03:25:11;;;;;;;;;;;12.50;99.90;;;;;;5041206;28;20568;-76
2022/10/17 03:27:36;;;;;;;;;;;12.50;99.90;;;;;;5076538;28;19934;-76
2022/10/17 03:30:02;;;;;;;;;;;12.50;99.90;;;;;;5054734;28;19929;-76
2022/10/17 03:32:27;;;;;;;;;;;12.50;99.90;;;;;;5052100;28;19928;-76
2022/10/17 03:34:53;;;;;;;;;;;12.50;99.90;;;;;;5079657;28;20446;-76
2022/10/17 03:37:18;;;;;;;;;;;12.50;99.90;;;;;;5086630;28;20394;-76
2022/10/17 03:39:44;;;;;;;;;;;12.50;99.90;;;;;;5086858;28;19931;-76
2022/10/17 03:42:10;;;;;;;;;;;12.50;99.90;;;;;;5069152;28;19935;-76
2022/10/17 03:44:35;;;;;;;;;;;12.50;99.90;;;;;;5068310;28;19979;-76
2022/10/17 03:47:01;;;;;;;;;;;12.40;99.90;;;;;;5018567;28;19924;-76
2022/10/17 03:49:27;;;;;;;;;;;12.50;99.90;;;;;;5063695;28;19979;-76
2022/10/17 03:51:52;;;;;;;;;;;12.50;99.90;;;;;;5088007;28;19976;-76
2022/10/17 03:54:18;;;;;;;;;;;12.50;99.90;;;;;;5071178;28;19928;-76
2022/10/17 03:56:43;;;;;;;;;;;12.50;99.90;;;;;;5081178;28;19928;-76
2022/10/17 03:59:13;;;;;;;;;;;12.50;99.90;;;;;;5097251;28;19925;-76
2022/10/17 04:01:38;;;;;;;;;;;12.50;99.90;;;;;;5068443;28;19929;-76
2022/10/17 04:04:04;;;;;;;;;;;12.50;99.90;;;;;;5053347;28;19973;-76
2022/10/17 04:06:30;;;;;;;;;;;12.50;99.90;;;;;;5069742;28;20058;-76
2022/10/17 04:08:55;;;;;;;;;;;12.50;99.90;;;;;;5062826;28;19924;-77
2022/10/17 04:11:21;;;;;;;;;;;12.50;99.90;;;;;;5088233;28;19925;-76
2022/10/17 04:13:47;;;;;;;;;;;12.50;99.90;;;;;;5105058;28;19949;-76
2022/10/17 04:16:14;;;;;;;;;;;12.60;99.90;;;;;;5071378;28;19930;-76
2022/10/17 04:18:40;;;;;;;;;;;12.60;99.90;;;;;;5105029;28;19924;-76
2022/10/17 04:21:06;;;;;;;;;;;12.60;99.90;;;;;;5074062;28;20001;-76
2022/10/17 04:23:31;;;;;;;;;;;12.60;99.90;;;;;;5081557;28;19931;-76
2022/10/17 04:25:58;;;;;;;;;;;12.60;99.90;;;;;;5052925;28;20284;-76
2022/10/17 04:28:24;;;;;;;;;;;12.60;99.90;;;;;;5056629;28;19928;-77
2022/10/17 04:31:00;;;;;;;;;;;12.60;99.90;;;;;;5059655;28;20376;-76
2022/10/17 04:33:26;;;;;;;;;;;12.70;99.90;;;;;;5054034;28;19974;-77
2022/10/17 04:35:59;;;;;;;;;;;12.70;99.90;;;;;;5060640;28;19924;-76
2022/10/17 04:38:25;;;;;;;;;;;12.80;99.90;;;;;;5074169;28;19924;-76
2022/10/17 04:40:50;;;;;;;;;;;12.80;99.90;;;;;;5089395;28;19928;-76
2022/10/17 04:43:16;;;;;;;;;;;12.90;99.90;;;;;;5057411;28;19931;-76
2022/10/17 04:45:41;;;;;;;;;;;13.00;99.90;;;;;;5073944;28;19930;-76
2022/10/17 04:48:07;;;;;;;;;;;13.00;99.90;;;;;;5046304;28;19928;-76
2022/10/17 04:50:33;;;;;;;;;;;13.10;99.90;;;;;;5082547;28;20300;-76
2022/10/17 04:52:58;;;;;;;;;;;13.10;99.90;;;;;;5056063;28;19928;-76
2022/10/17 04:55:24;;;;;;;;;;;13.20;99.90;;;;;;5072444;28;19933;-76
2022/10/17 04:57:49;;;;;;;;;;;13.20;99.90;;;;;;5084126;28;19967;-76
2022/10/17 05:00:15;;;;;;;;;;;13.20;99.90;;;;;;5077809;28;19924;-77
2022/10/17 05:02:40;;;;;;;;;;;13.30;99.90;;;;;;5059934;28;19931;-76
2022/10/17 05:05:06;;;;;;;;;;;13.30;99.90;;;;;;5091863;28;19924;-77
2022/10/17 05:07:32;;;;;;;;;;;13.30;99.90;;;;;;5086463;28;20056;-76
2022/10/17 05:09:57;;;;;;;;;;;13.30;99.90;;;;;;5060183;28;20435;-76
2022/10/17 05:12:23;;;;;;;;;;;13.30;99.90;;;;;;5109172;28;19982;-76
2022/10/17 05:14:49;;;;;;;;;;;13.40;99.90;;;;;;5078132;28;20011;-76
2022/10/17 05:17:14;;;;;;;;;;;13.40;99.90;;;;;;5093793;28;20019;-77
2022/10/17 05:19:40;;;;;;;;;;;13.40;99.90;;;;;;5077359;28;19935;-76
2022/10/17 05:22:05;;;;;;;;;;;13.40;99.90;;;;;;5092852;28;19924;-76
2022/10/17 05:24:31;;;;;;;;;;;13.40;99.90;;;;;;5094135;28;19947;-76
2022/10/17 05:26:56;;;;;;;;;;;13.50;99.90;;;;;;5073495;28;20045;-76
2022/10/17 05:29:22;;;;;;;;;;;13.40;99.90;;;;;;5073951;28;19968;-76
2022/10/17 05:31:48;;;;;;;;;;;13.50;99.90;;;;;;5076139;28;19935;-76
2022/10/17 05:34:13;;;;;;;;;;;13.60;99.90;;;;;;5060441;28;20351;-76
2022/10/17 05:36:39;;;;;;;;;;;13.60;99.90;;;;;;5111661;28;19928;-76
2022/10/17 05:39:04;;;;;;;;;;;13.70;99.90;;;;;;5079128;28;19968;-76
2022/10/17 05:41:30;;;;;;;;;;;13.80;99.90;;;;;;5074401;28;19977;-76
2022/10/17 05:43:55;;;;;;;;;;;13.80;99.90;;;;;;5060443;28;19924;-75
2022/10/17 05:46:21;;;;;;;;;;;13.90;99.90;;;;;;5057214;28;19924;-77
2022/10/17 05:48:47;;;;;;;;;;;13.90;99.90;;;;;;5093643;28;19965;-76
2022/10/17 05:51:12;;;;;;;;;;;13.90;99.90;;;;;;5060548;28;19928;-76
2022/10/17 05:53:38;;;;;;;;;;;14.00;99.90;;;;;;5058897;28;19934;-76
2022/10/17 05:56:05;;;;;;;;;;;14.00;99.90;;;;;;5069104;28;20287;-76
2022/10/17 05:58:33;;;;;;;;;;;14.00;99.90;;;;;;5074691;28;19932;-76
2022/10/17 06:00:59;;;;;;;;;;;14.00;99.90;;;;;;5057266;28;19967;-77
2022/10/17 06:03:25;;;;;;;;;;;14.10;99.90;;;;;;5041534;28;19979;-76
2022/10/17 06:05:51;;;;;;;;;;;14.10;99.90;;;;;;5093770;28;19975;-76
2022/10/17 06:08:17;;;;;;;;;;;14.10;99.90;;;;;;5064380;28;20323;-76
2022/10/17 06:10:42;;;;;;;;;;;14.10;99.90;;;;;;5057005;28;19925;-78
2022/10/17 06:13:08;;;;;;;;;;;14.10;99.90;;;;;;5065069;28;19928;-79
2022/10/17 06:15:33;;;;;;;;;;;14.10;99.90;;;;;;5093242;28;19932;-77
2022/10/17 06:17:59;;;;;;;;;;;14.20;99.90;;;;;;5059929;28;19932;-74
2022/10/17 06:20:25;;;;;;;;;;;14.10;99.90;;;;;;5075054;28;19932;-73
2022/10/17 06:22:50;;;;;;;;;;;14.20;99.90;;;;;;5075213;28;19928;-72
2022/10/17 06:25:16;;;;;;;;;;;14.10;99.90;;;;;;5080939;28;19925;-73
2022/10/17 06:27:41;;;;;;;;;;;14.20;99.90;;;;;;5066970;28;19931;-73
2022/10/17 06:30:07;;;;;;;;;;;14.20;99.90;;;;;;5070869;28;19952;-74
2022/10/17 06:32:32;;;;;;;;;;;14.10;99.90;;;;;;5053069;28;19936;-74
2022/10/17 06:34:58;;;;;;;;;;;14.20;99.90;;;;;;5087017;28;19929;-76
2022/10/17 06:37:24;;;;;;;;;;;14.20;99.90;;;;;;5053986;28;19971;-75
2022/10/17 06:39:49;;;;;;;;;;;14.20;99.90;;;;;;5086715;28;20153;-75
2022/10/17 06:42:15;;;;;;;;;;;14.20;99.90;;;;;;5095020;28;20281;-75
2022/10/17 06:44:41;;;;;;;;;;;14.20;99.90;;;;;;5106038;28;19925;-74
2022/10/17 06:47:06;;;;;;;;;;;14.20;99.90;;;;;;5088130;28;19924;-75
2022/10/17 06:49:33;;;;;;;;;;;14.20;99.90;;;;;;5055631;28;20028;-77
2022/10/17 06:51:59;;;;;;;;;;;14.30;99.90;;;;;;5052749;28;19935;-74
2022/10/17 06:54:24;;;;;;;;;;;14.30;99.90;;;;;;5073994;28;19925;-76
2022/10/17 06:56:50;;;;;;;;;;;14.30;99.90;;;;;;5094367;28;19991;-76
2022/10/17 06:59:15;;;;;;;;;;;14.40;99.90;;;;;;5069389;28;19925;-75
2022/10/17 07:01:41;;;;;;;;;;;14.30;99.90;;;;;;5070508;28;19964;-80
2022/10/17 07:04:07;;;;;;;;;;;14.40;99.90;;;;;;5070496;28;19975;-78
2022/10/17 07:06:32;;;;;;;;;;;14.40;99.90;;;;;;5080532;28;19928;-77
2022/10/17 07:08:59;;;;;;;;;;;14.40;99.90;;;;;;5073608;28;19928;-78
2022/10/17 07:11:25;;;;;;;;;;;14.40;99.90;;;;;;5069074;28;19932;-80
2022/10/17 07:13:50;;;;;;;;;;;14.50;99.90;;;;;;5068086;28;20265;-79
2022/10/17 07:16:16;;;;;;;;;;;14.50;99.90;;;;;;5095044;28;19997;-80
2022/10/17 07:18:42;;;;;;;;;;;14.50;99.90;;;;;;5062134;28;20016;-80
2022/10/17 07:21:08;;;;;;;;;;;14.60;99.90;;;;;;5102111;28;19975;-79
2022/10/17 07:23:35;;;;;;;;;;;14.60;99.90;;;;;;5067881;28;19928;-81
2022/10/17 07:26:06;;;;;;;;;;;14.70;99.90;;;;;;5082130;28;19932;-80
2022/10/17 07:28:35;;;;;;;;;;;14.70;99.90;;;;;;5060658;28;20015;-79
2022/10/17 07:31:08;;;;;;;;;;;14.80;99.90;;;;;;5092243;28;19928;-78
2022/10/17 07:33:34;;;;;;;;;;;14.80;99.90;;;;;;5096234;27;20640;-77
2022/10/17 07:36:00;;;;;;;;;;;14.90;99.90;;;;;;5072874;28;19931;-77
2022/10/17 07:38:26;;;;;;;;;;;14.90;99.90;;;;;;5089134;28;19923;-78
2022/10/17 07:40:55;;;;;;;;;;;15.00;99.90;;;;;;5082416;28;19924;-78
2022/10/17 07:43:22;;;;;;;;;;;15.10;99.90;;;;;;5107192;27;19928;-78
2022/10/17 07:45:47;;;;;;;;;;;15.10;99.90;;;;;;5055356;28;20015;-78
2022/10/17 07:48:13;;;;;;;;;;;15.20;99.90;;;;;;5092370;28;20038;-78
2022/10/17 07:50:38;;;;;;;;;;;15.20;99.90;;;;;;5092101;28;20044;-79
2022/10/17 07:53:04;;;;;;;;;;;15.30;99.90;;;;;;5084084;28;19936;-77
2022/10/17 07:55:30;;;;;;;;;;;15.40;99.90;;;;;;5071851;28;20022;-77
2022/10/17 07:57:56;;;;;;;;;;;15.40;99.90;;;;;;5074283;28;20424;-75
2022/10/17 08:00:21;;;;;;;;;;;15.40;99.90;;;;;;5090921;28;19928;-76
2022/10/17 08:02:47;;;;;;;;;;;15.60;99.90;;;;;;5092013;28;19928;-75
2022/10/17 08:05:12;;;;;;;;;;;15.60;99.90;;;;;;5079978;28;19928;-75
2022/10/17 08:07:39;;;;;;;;;;;15.60;99.90;;;;;;5060818;28;20292;-76
2022/10/17 08:10:04;;;;;;;;;;;15.60;99.90;;;;;;5083826;28;19935;-75
2022/10/17 08:12:33;;;;;;;;;;;15.60;99.90;;;;;;5082167;28;19932;-76
2022/10/17 08:14:59;;;;;;;;;;;15.60;99.90;;;;;;5078484;28;19938;-76
2022/10/17 08:17:25;;;;;;;;;;;15.70;99.90;;;;;;5087588;28;19928;-75
2022/10/17 08:19:50;;;;;;;;;;;15.70;99.90;;;;;;5085374;28;19932;-75
2022/10/17 08:22:16;;;;;;;;;;;15.70;99.90;;;;;;5075514;28;19928;-78
2022/10/17 08:24:42;;;;;;;;;;;15.70;99.90;;;;;;5077277;28;19924;-77
2022/10/17 08:27:10;;;;;;;;;;;15.70;99.90;;;;;;5076764;28;19924;-78
2022/10/17 08:29:36;;;;;;;;;;;15.80;99.90;;;;;;5075253;28;19971;-77
2022/10/17 08:32:02;;;;;;;;;;;15.80;99.90;;;;;;5069749;28;20272;-76
2022/10/17 08:34:27;;;;;;;;;;;15.80;99.90;;;;;;5072839;28;19928;-77
2022/10/17 08:36:53;;;;;;;;;;;15.90;99.90;;;;;;5056059;28;20387;-77
2022/10/17 08:39:19;;;;;;;;;;;15.80;99.90;;;;;;5066417;28;19943;-76
2022/10/17 08:42:00;;;;;;;;;;;15.90;99.90;;;;;;5092671;28;19971;-76
2022/10/17 08:44:28;;;;;;;;;;;15.80;99.90;;;;;;5090952;28;19928;-76
2022/10/17 08:46:57;;;;;;;;;;;15.90;99.90;;;;;;5074066;28;19928;-76
2022/10/17 08:49:41;;;;;;;;;;;16.00;99.90;;;;;;5075474;28;20028;-76
2022/10/17 08:52:15;;;;;;;;;;;15.90;99.90;;;;;;5055773;28;19972;-76
2022/10/17 08:54:44;;;;;;;;;;;15.90;99.90;;;;;;5072191;28;19975;-76
2022/10/17 08:57:11;;;;;;;;;;;15.90;99.90;;;;;;5072574;28;19974;-76
2022/10/17 08:59:36;;;;;;;;;;;15.90;99.90;;;;;;5079266;28;20415;-77
2022/10/17 09:02:05;;;;;;;;;;;16.00;99.90;;;;;;5092060;28;20019;-76
2022/10/17 09:04:34;;;;;;;;;;;15.90;99.90;;;;;;5090496;28;20401;-76
2022/10/17 09:07:08;;;;;;;;;;;15.90;99.90;;;;;;5067612;28;19928;-77
2022/10/17 09:09:39;;;;;;;;;;;15.90;99.90;;;;;;5058705;28;19932;-80
2022/10/17 09:12:04;;;;;;;;;;;15.90;99.90;;;;;;5080638;28;19963;-76
2022/10/17 09:14:30;;;;;;;;;;;15.80;99.90;;;;;;5090512;28;19975;-75
2022/10/17 09:17:06;;;;;;;;;;;15.90;99.90;;;;;;5091364;28;19971;-76
2022/10/17 09:19:35;;;;;;;;;;;15.80;99.90;;;;;;5074088;28;19936;-75
2022/10/17 09:22:03;;;;;;;;;;;15.80;99.90;;;;;;5108574;27;19932;-75
2022/10/17 09:24:38;;;;;;;;;;;15.80;99.90;;;;;;5109197;27;19928;-75
2022/10/17 09:27:04;;;;;;;;;;;15.80;99.90;;;;;;5083597;28;20410;-76
2022/10/17 09:29:30;;;;;;;;;;;15.80;99.90;;;;;;5071657;28;20039;-76
2022/10/17 09:32:15;;;;;;;;;;;15.80;99.90;;;;;;5078218;28;19967;-76
2022/10/17 09:34:41;;;;;;;;;;;15.80;99.90;;;;;;5065533;28;20276;-77
2022/10/17 09:37:11;;;;;;;;;;;15.80;99.90;;;;;;5063984;28;19925;-76
2022/10/17 09:39:37;;;;;;;;;;;15.80;99.90;;;;;;5071767;28;20288;-83
2022/10/17 09:42:02;;;;;;;;;;;15.80;99.90;;;;;;5072331;28;19928;-78
2022/10/17 09:44:31;;;;;;;;;;;15.80;99.90;;;;;;5110161;27;20376;-81
2022/10/17 09:46:57;;;;;;;;;;;15.80;99.90;;;;;;5098798;27;19936;-80
2022/10/17 09:49:33;;;;;;;;;;;15.80;99.90;;;;;;5065804;28;19928;-83
2022/10/17 09:52:00;;;;;;;;;;;15.80;99.90;;;;;;5049628;28;19933;-85
2022/10/17 09:54:28;;;;;;;;;;;15.80;99.90;;;;;;5080847;28;19951;-81
2022/10/17 09:56:58;;;;;;;;;;;15.80;99.90;;;;;;5066535;28;20395;-80
2022/10/17 09:59:31;;;;;;;;;;;15.80;99.90;;;;;;5101846;27;19928;-83
2022/10/17 10:02:07;;;;;;;;;;;15.80;99.90;;;;;;5095262;27;19929;-78
2022/10/17 10:04:33;;;;;;;;;;;15.80;99.90;;;;;;5060371;28;19968;-80
2022/10/17 10:07:03;;;;;;;;;;;15.80;99.90;;;;;;5082467;28;19986;-80
2022/10/17 10:09:30;;;;;;;;;;;15.80;99.90;;;;;;5099677;27;19928;-80
2022/10/17 10:11:56;;;;;;;;;;;15.80;99.90;;;;;;5095593;28;19923;-78
2022/10/17 10:14:32;;;;;;;;;;;15.80;99.90;;;;;;5092351;28;19935;-77
2022/10/17 10:16:59;;;;;;;;;;;15.80;99.90;;;;;;5091616;28;19928;-78
2022/10/17 10:19:29;;;;;;;;;;;15.80;99.90;;;;;;5074762;28;19924;-77
2022/10/17 10:21:56;;;;;;;;;;;15.80;99.90;;;;;;5084611;28;19935;-78
2022/10/17 10:24:23;;;;;;;;;;;15.80;99.90;;;;;;5077468;28;19928;-78
2022/10/17 10:26:51;;;;;;;;;;;15.80;99.90;;;;;;5068284;28;20100;-77
2022/10/17 10:29:29;;;;;;;;;;;15.80;99.90;;;;;;5061789;28;19928;-80
2022/10/17 10:32:15;;;;;;;;;;;15.90;99.90;;;;;;5069792;28;19929;-78
2022/10/17 10:34:45;;;;;;;;;;;15.90;99.90;;;;;;5085906;28;19932;-81
2022/10/17 10:37:17;;;;;;;;;;;15.90;99.90;;;;;;5072682;28;20307;-77
2022/10/17 10:39:45;;;;;;;;;;;15.90;99.90;;;;;;5072008;28;19925;-80
2022/10/17 10:42:17;;;;;;;;;;;15.90;99.90;;;;;;5074588;28;20707;-77
2022/10/17 10:44:43;;;;;;;;;;;15.90;99.90;;;;;;5072109;28;20311;-78
2022/10/17 10:47:15;;;;;;;;;;;16.00;99.90;;;;;;5055088;28;19928;-77
2022/10/17 10:49:41;;;;;;;;;;;16.00;99.90;;;;;;5106491;28;19928;-77
2022/10/17 10:52:07;;;;;;;;;;;16.10;99.90;;;;;;5088074;28;20415;-78
2022/10/17 10:54:38;;;;;;;;;;;16.20;99.90;;;;;;5066098;28;20015;-76
2022/10/17 10:57:06;;;;;;;;;;;16.20;99.90;;;;;;5089393;28;19986;-76
2022/10/17 10:59:52;;;;;;;;;;;16.30;99.90;;;;;;5055078;28;20257;-76
2022/10/17 11:02:27;;;;;;;;;;;16.30;99.90;;;;;;5063223;28;20330;-77
2022/10/17 11:05:02;;;;;;;;;;;16.40;99.90;;;;;;5088533;28;20403;-77
2022/10/17 11:07:33;;;;;;;;;;;16.30;99.90;;;;;;5097149;28;19925;-77
2022/10/17 11:09:59;;;;;;;;;;;16.30;99.90;;;;;;5063532;28;19932;-81
2022/10/17 11:12:32;;;;;;;;;;;16.30;99.90;;;;;;5097873;28;19925;-76
2022/10/17 11:15:06;;;;;;;;;;;16.40;99.90;;;;;;5064795;28;19925;-77
2022/10/17 11:17:40;;;;;;;;;;;16.30;99.90;;;;;;5100237;28;19924;-76
2022/10/17 11:20:11;;;;;;;;;;;16.30;99.90;;;;;;5065582;28;19978;-76
2022/10/17 11:22:47;;;;;;;;;;;16.30;99.90;;;;;;5058868;28;19925;-76
2022/10/17 11:25:15;;;;;;;;;;;16.30;99.90;;;;;;5062902;28;19931;-76
2022/10/17 11:27:41;;;;;;;;;;;16.40;99.90;;;;;;5096818;28;20359;-76
2022/10/17 11:30:11;;;;;;;;;;;16.40;99.90;;;;;;5088634;28;19969;-76
2022/10/17 11:32:39;;;;;;;;;;;16.40;99.90;;;;;;5058293;28;19925;-76
2022/10/17 11:35:09;;;;;;;;;;;16.50;99.90;;;;;;5048682;28;20320;-76
2022/10/17 11:37:39;;;;;;;;;;;16.50;99.90;;;;;;5089162;28;19973;-76
2022/10/17 11:40:09;;;;;;;;;;;16.60;99.90;;;;;;5058271;28;19935;-78
2022/10/17 11:42:34;;;;;;;;;;;16.60;99.90;;;;;;5057173;28;19966;-77
2022/10/17 11:45:12;;;;;;;;;;;16.70;99.90;;;;;;5091154;28;19939;-77
2022/10/17 11:47:43;;;;;;;;;;;16.60;99.90;;;;;;5089268;28;19935;-78
2022/10/17 11:50:19;;;;;;;;;;;16.60;99.90;;;;;;5087617;28;19924;-77
2022/10/17 11:52:47;;;;;;;;;;;16.50;99.90;;;;;;5072973;28;19933;-78
2022/10/17 11:55:16;;;;;;;;;;;16.40;99.90;;;;;;5072167;28;19975;-79
2022/10/17 11:57:57;;;;;;;;;;;16.40;99.90;;;;;;5083325;28;19947;-78
2022/10/17 12:00:33;;;;;;;;;;;16.40;99.90;;;;;;5083022;28;20368;-75
2022/10/17 12:03:03;;;;;;;;;;;16.30;99.90;;;;;;5071121;28;20703;-76
2022/10/17 12:05:35;;;;;;;;;;;16.30;99.90;;;;;;5069212;28;19936;-76
2022/10/17 12:08:19;;;;;;;;;;;16.30;99.90;;;;;;5057279;28;19939;-76
2022/10/17 12:10:45;;;;;;;;;;;16.20;99.90;;;;;;5069478;28;19945;-83
2022/10/17 12:13:26;;;;;;;;;;;16.20;99.90;;;;;;5083942;28;19932;-76
2022/10/17 12:15:51;;;;;;;;;;;16.20;99.90;;;;;;5089430;28;19935;-79
2022/10/17 12:18:17;;;;;;;;;;;16.10;99.90;;;;;;5075905;28;19928;-76
2022/10/17 12:20:54;;;;;;;;;;;16.10;99.90;;;;;;5067936;28;19929;-77
2022/10/17 12:23:22;;;;;;;;;;;16.20;99.90;;;;;;5072696;28;19929;-76
2022/10/17 12:25:53;;;;;;;;;;;16.10;99.90;;;;;;5083485;28;19935;-77
2022/10/17 12:28:26;;;;;;;;;;;16.10;99.90;;;;;;5055460;28;19960;-77
2022/10/17 12:30:57;;;;;;;;;;;16.10;99.90;;;;;;5103829;28;19967;-76
2022/10/17 12:33:28;;;;;;;;;;;16.20;99.90;;;;;;5073157;28;19974;-78
2022/10/17 12:36:12;;;;;;;;;;;16.20;99.90;;;;;;5074378;28;19931;-79
2022/10/17 12:38:38;;;;;;;;;;;16.20;99.90;;;;;;5084562;28;19935;-77
2022/10/17 12:41:04;;;;;;;;;;;16.20;99.90;;;;;;5090130;28;20594;-77
2022/10/17 12:43:30;;;;;;;;;;;16.20;99.90;;;;;;5089597;28;19924;-76
2022/10/17 12:45:59;;;;;;;;;;;16.30;99.90;;;;;;5087528;28;19956;-76
2022/10/17 12:48:37;;;;;;;;;;;16.30;99.90;;;;;;5090991;28;20724;-76
2022/10/17 12:51:02;;;;;;;;;;;16.50;99.90;;;;;;5089437;28;19928;-77
2022/10/17 12:53:35;;;;;;;;;;;16.50;99.90;;;;;;5078581;28;19935;-77
2022/10/17 12:56:01;;;;;;;;;;;16.50;99.90;;;;;;5069185;28;19928;-76
2022/10/17 12:58:27;;;;;;;;;;;16.50;99.90;;;;;;5069014;28;19951;-76
2022/10/17 13:00:54;;;;;;;;;;;16.40;99.90;;;;;;5070384;28;19925;-76
2022/10/17 13:03:22;;;;;;;;;;;16.40;99.90;;;;;;5069048;28;19928;-77
2022/10/17 13:05:53;;;;;;;;;;;16.40;99.90;;;;;;5069529;28;19928;-79
2022/10/17 13:08:21;;;;;;;;;;;16.40;99.90;;;;;;5087951;28;20488;-78
2022/10/17 13:10:48;;;;;;;;;;;16.30;99.90;;;;;;5068377;28;20372;-83
2022/10/17 13:13:20;;;;;;;;;;;16.40;99.90;;;;;;5067336;28;19928;-78
2022/10/17 13:15:50;;;;;;;;;;;16.30;99.90;;;;;;5069711;28;19929;-77
2022/10/17 13:18:18;;;;;;;;;;;16.30;99.90;;;;;;5090043;28;20441;-76
2022/10/17 13:20:53;;;;;;;;;;;16.40;99.90;;;;;;5090882;28;19933;-76
2022/10/17 13:23:25;;;;;;;;;;;16.40;99.90;;;;;;5076745;28;19978;-77
2022/10/17 13:26:09;;;;;;;;;;;16.40;99.90;;;;;;5071765;28;19978;-78
2022/10/17 13:28:35;;;;;;;;;;;16.40;99.90;;;;;;5073229;28;19935;-76
2022/10/17 13:31:01;;;;;;;;;;;16.40;99.90;;;;;;5072931;28;19938;-78
2022/10/17 13:33:29;;;;;;;;;;;16.40;99.90;;;;;;5072999;28;20272;-75
2022/10/17 13:35:55;;;;;;;;;;;16.30;99.90;;;;;;5074735;28;19928;-77
2022/10/17 13:38:24;;;;;;;;;;;16.30;99.90;;;;;;5091996;28;20301;-75
2022/10/17 13:40:50;;;;;;;;;;;16.30;99.90;;;;;;5090927;28;20311;-76
2022/10/17 13:43:18;;;;;;;;;;;16.30;99.90;;;;;;5126468;27;19928;-77
2022/10/17 13:45:48;;;;;;;;;;;16.30;99.90;;;;;;5091249;28;19928;-76
2022/10/17 13:48:22;;;;;;;;;;;16.40;99.90;;;;;;5091560;28;19935;-77
2022/10/17 13:50:49;;;;;;;;;;;16.40;99.90;;;;;;5080195;28;19928;-76
2022/10/17 13:53:18;;;;;;;;;;;16.40;99.90;;;;;;5071403;28;19928;-76
2022/10/17 13:56:00;;;;;;;;;;;16.50;99.90;;;;;;5055500;28;19935;-78
2022/10/17 13:58:29;;;;;;;;;;;16.50;99.90;;;;;;5071641;28;19925;-76
2022/10/17 14:00:55;;;;;;;;;;;16.50;99.90;;;;;;5065732;28;19936;-76
2022/10/17 14:03:21;;;;;;;;;;;16.50;99.90;;;;;;5074111;28;19958;-76
2022/10/17 14:06:05;;;;;;;;;;;16.50;99.90;;;;;;5081151;28;19935;-76
2022/10/17 14:08:32;;;;;;;;;;;16.60;99.90;;;;;;5079992;28;19975;-78
2022/10/17 14:10:57;;;;;;;;;;;16.70;99.90;;;;;;5069478;28;19982;-76
2022/10/17 14:13:25;;;;;;;;;;;16.80;99.90;;;;;;5077665;28;19972;-76
2022/10/17 14:15:52;;;;;;;;;;;16.80;99.90;;;;;;5063395;28;19933;-76
2022/10/17 14:18:23;;;;;;;;;;;16.90;99.90;;;;;;5069785;28;19935;-77
2022/10/17 14:20:50;;;;;;;;;;;16.80;99.90;;;;;;5105119;28;19936;-75
2022/10/17 14:23:29;;;;;;;;;;;16.80;99.90;;;;;;5087516;28;19994;-75